Terminal Aerodrome Forecast
Issued by NWS Topeka, KS

Home | Current Version | Previous Version | Graphics & Text | Print | Product List | Glossary On
Versions: 1 2 3 4 5 6 7 8 9 10 11 12 13 14 15 16 17 18 19 20 21 22 23
000
FTUS43 KTOP 211300 AAA
TAFTOP
TAF AMD
KTOP 211338Z 2114/2212 18011KT P6SM OVC016
      TEMPO 2114/2117 4SM BR OVC008
     FM212300 17012KT 3SM -DZ BR OVC014
     FM220900 18010KT 3SM -RA BR OVC019=

USA.gov is the U.S. government's official web portal to all federal, state and local government web resources and services.